Billings, MT

1:08 PM MST on February 22, 2017 (GMT -0700)
Yellowstone RV Campground | | Change Station

Elev 3120 ft 45.76 °N, 108.48 °W | Updated 11 seconds ago

Rain
Rain
37.4 °F
Feels Like 37 °F
N
0.0
Wind Variable Wind from NW
Gusts 0.0 mph

Today
High -- | Low -- °F
--% Chance of Precip.
Yesterday
High -- | Low -- °F
Precip. -- in
Pressure 29.87 in
Visibility 2.0 miles
Clouds Few 700 ft
Overcast 1500 ft
Windchill 37 °F
Dew Point 28 °F
Humidity 67%
Rainfall 0.00 in
Snow Depth Not available.
7:04 AM 5:51 PM
Waning Crescent, 15% visible
SPECI KBIL 222002Z 32007KT 2SM R10L/5000VP6000FT -PL BR FEW007 OVC015 01/00 A2987 RMK AO2 TWR VIS 6 SNE02GSE02PLB02 VIS NE-E 10 P0001 T00110000
Pressure 29.87 in
Visibility 2.0 miles
Clouds Few 700 ft
Overcast 1500 ft
Windchill 37 °F
Dew Point 28 °F
Humidity 67%
Rainfall 0.00 in
Snow Depth Not available.
7:04 AM 5:51 PM
Waning Crescent, 15% visible
SPECI KBIL 222002Z 32007KT 2SM R10L/5000VP6000FT -PL BR FEW007 OVC015 01/00 A2987 RMK AO2 TWR VIS 6 SNE02GSE02PLB02 VIS NE-E 10 P0001 T00110000

Get Your Daily Forecast Email!

Thanks for signing up!

Be on the lookout for a verification email in your inbox.

You'll start receiving the daily forecast at 8 AM.

×

10-Day Weather Forecast

Almanac

Astronomy

Feb. 22, 2017 Rise Set
Actual Time
Civil Twilight
Nautical Twilight
Astronomical Twilight
Moon
Length of Visible Light
Length of Day
Tomorrow will be .
, % of the Moon is Illuminated

Today's Extremes

State Highs State Lows

Community

WunderPhotos

Upload Photos

1,962,540 photos uploaded!

WunderBlog® & News

Nearby

Air Quality

  Air Quality AQ Index Pollutant
Not available.

Snow Depth

Station Depth Elevation

Earthquake Activity

City Distance Mag. Time & Date
Minimum magnitude displayed is 2.5.

Coastal Water Temperatures

Place Temperature

Stations

Nearby Weather Stations

Station Location Temp. Windchill Dew Point Humidity Wind Precip. Elev Updated Type
                   

Watches & Warnings

There are currently no watches in effect.